Ayacucho, Peru

8:48 AM PET on July 25, 2014 (GMT -0500)
Col Alfredo Mendivil Duarte (SPHO) Elev 8993 ft | 13.15 °S, 74.20 °W | Change Station

Current weather conditions updated 48 minutes ago

Scattered Clouds
Scattered Clouds
57 °F
Feels Like 57 °F
N
5
Wind Variable Wind from ENE

Today is forecast to be Much Cooler than yesterday.

Today
High -- | Low -- °F
--% Chance of Precip.
Yesterday
High -- | Low -- °F
Precip. -- in
6:18 AM 5:48 PM
Waning Crescent, 2% visible
Pressure 30.33 in
Visibility 6.2 miles
Clouds Scattered Clouds 9000 ft
Dew Point 45 °F
Humidity 63%
Rainfall 0.00 in
Snow Depth Not available.
UV 2 out of 12
Pollen Not available.
Air Quality Not available.
Flu Activity Not available.
METAR SPHO 251300Z 06004KT 9999 SCT090 14/07 Q1027 RMK PP000

More Conditions Fewer Conditions

Pressure 30.33 in
Visibility 6.2 miles
Clouds Scattered Clouds 9000 ft
Dew Point 45 °F
Humidity 63%
Rainfall 0.00 in
Snow Depth Not available.
UV 2 out of 12
Pollen Not available.
Air Quality Not available.
Flu Activity Not available.
METAR SPHO 251300Z 06004KT 9999 SCT090 14/07 Q1027 RMK PP000

More Conditions Fewer Conditions

10-Day Weather Forecast

Almanac

Astronomy

Jul. 25, 2014 Rise Set
Actual Time 6:18 AM PET 5:48 PM PET
Civil Twilight 5:56 AM PET 6:10 PM PET
Nautical Twilight 5:30 AM PET 6:36 PM PET
Astronomical Twilight 5:04 AM PET 7:02 PM PET
Moon 5:07 AM PET 4:56 PM PET
Length of Visible Light 12h 14m
Length of Day
11h 29m
Tomorrow will be 0m 28s longer.
Waning Crescent, 2% of the Moon is Illuminated
Today
Waning Crescent
Jul 26
New
Aug 3
First Quarter
Aug 10
Full
Aug 17
Last Quarter

Yesterday's Extremes

Country Highs Country Lows

Community

WunderPhotos

Upload Photos

1,737,324 photos uploaded!

Nearby

Snow Depth

Not available.

Earthquake Activity

City Distance Mag. Time & Date
No recent earthquake activity has been reported nearby.
Minimum magnitude displayed is 2.5.

Coastal Water Temperatures

Place Temperature
No Stations Reporting

Nearby Weather Stations

There are no personal weather stations in this area.